sensor_id;sensor_type;location;lat;lon;timestamp;P1;durP1;ratioP1;P2;durP2;ratioP2
38591;SDS011;24356;48.460;11.450;2023-02-18T00:01:23;4.00;;;2.20;;
38591;SDS011;24356;48.460;11.450;2023-02-18T00:03:50;3.45;;;2.30;;
38591;SDS011;24356;48.460;11.450;2023-02-18T00:06:17;3.53;;;2.22;;
38591;SDS011;24356;48.460;11.450;2023-02-18T00:08:45;5.57;;;2.63;;
38591;SDS011;24356;48.460;11.450;2023-02-18T00:11:11;5.00;;;2.50;;
38591;SDS011;24356;48.460;11.450;2023-02-18T00:13:37;3.25;;;2.30;;
38591;SDS011;24356;48.460;11.450;2023-02-18T00:16:04;2.60;;;2.03;;
38591;SDS011;24356;48.460;11.450;2023-02-18T00:18:30;3.58;;;2.20;;
38591;SDS011;24356;48.460;11.450;2023-02-18T00:20:56;3.40;;;2.20;;
38591;SDS011;24356;48.460;11.450;2023-02-18T00:23:22;4.82;;;2.17;;
38591;SDS011;24356;48.460;11.450;2023-02-18T00:25:48;3.30;;;2.10;;
38591;SDS011;24356;48.460;11.450;2023-02-18T00:28:14;3.85;;;2.20;;
38591;SDS011;24356;48.460;11.450;2023-02-18T00:30:40;3.72;;;2.10;;
38591;SDS011;24356;48.460;11.450;2023-02-18T00:33:06;3.47;;;1.95;;
38591;SDS011;24356;48.460;11.450;2023-02-18T00:35:31;4.75;;;2.17;;
38591;SDS011;24356;48.460;11.450;2023-02-18T00:37:57;4.38;;;2.15;;
38591;SDS011;24356;48.460;11.450;2023-02-18T00:40:23;3.22;;;2.15;;
38591;SDS011;24356;48.460;11.450;2023-02-18T00:42:48;4.28;;;2.38;;
38591;SDS011;24356;48.460;11.450;2023-02-18T00:45:14;4.65;;;2.25;;
38591;SDS011;24356;48.460;11.450;2023-02-18T00:47:40;5.28;;;2.00;;
38591;SDS011;24356;48.460;11.450;2023-02-18T00:50:06;2.40;;;1.95;;
38591;SDS011;24356;48.460;11.450;2023-02-18T00:52:32;3.50;;;1.98;;
38591;SDS011;24356;48.460;11.450;2023-02-18T00:54:57;6.35;;;1.95;;
38591;SDS011;24356;48.460;11.450;2023-02-18T00:57:23;2.60;;;1.65;;
38591;SDS011;24356;48.460;11.450;2023-02-18T00:59:48;2.80;;;2.00;;
38591;SDS011;24356;48.460;11.450;2023-02-18T01:02:14;3.22;;;1.83;;
38591;SDS011;24356;48.460;11.450;2023-02-18T01:04:39;3.38;;;1.48;;
38591;SDS011;24356;48.460;11.450;2023-02-18T01:07:05;6.68;;;2.10;;
38591;SDS011;24356;48.460;11.450;2023-02-18T01:09:31;2.92;;;1.80;;
38591;SDS011;24356;48.460;11.450;2023-02-18T01:11:56;2.80;;;1.73;;
38591;SDS011;24356;48.460;11.450;2023-02-18T01:14:22;2.97;;;1.88;;
38591;SDS011;24356;48.460;11.450;2023-02-18T01:16:47;2.85;;;1.70;;
38591;SDS011;24356;48.460;11.450;2023-02-18T01:19:13;4.68;;;1.70;;
38591;SDS011;24356;48.460;11.450;2023-02-18T01:21:39;4.45;;;1.48;;
38591;SDS011;24356;48.460;11.450;2023-02-18T01:24:04;2.35;;;1.50;;
38591;SDS011;24356;48.460;11.450;2023-02-18T01:26:30;3.05;;;1.50;;
38591;SDS011;24356;48.460;11.450;2023-02-18T01:28:56;1.95;;;1.40;;
38591;SDS011;24356;48.460;11.450;2023-02-18T01:31:21;3.03;;;1.77;;
38591;SDS011;24356;48.460;11.450;2023-02-18T01:33:47;1.70;;;1.30;;
38591;SDS011;24356;48.460;11.450;2023-02-18T01:36:12;2.13;;;1.60;;
38591;SDS011;24356;48.460;11.450;2023-02-18T01:38:38;1.95;;;1.65;;
38591;SDS011;24356;48.460;11.450;2023-02-18T01:41:04;2.50;;;1.52;;
38591;SDS011;24356;48.460;11.450;2023-02-18T01:43:30;1.50;;;1.33;;
38591;SDS011;24356;48.460;11.450;2023-02-18T01:46:13;2.10;;;1.50;;
38591;SDS011;24356;48.460;11.450;2023-02-18T01:48:41;1.67;;;1.40;;
38591;SDS011;24356;48.460;11.450;2023-02-18T01:51:29;3.58;;;1.67;;
38591;SDS011;24356;48.460;11.450;2023-02-18T01:56:35;1.70;;;1.30;;
38591;SDS011;24356;48.460;11.450;2023-02-18T01:59:17;4.47;;;1.45;;
38591;SDS011;24356;48.460;11.450;2023-02-18T02:01:55;1.67;;;1.48;;
38591;SDS011;24356;48.460;11.450;2023-02-18T02:04:22;4.03;;;1.40;;
38591;SDS011;24356;48.460;11.450;2023-02-18T02:06:47;1.98;;;1.50;;
38591;SDS011;24356;48.460;11.450;2023-02-18T02:09:14;3.67;;;1.42;;
38591;SDS011;24356;48.460;11.450;2023-02-18T02:17:16;3.38;;;1.77;;
38591;SDS011;24356;48.460;11.450;2023-02-18T02:28:31;2.85;;;1.80;;
38591;SDS011;24356;48.460;11.450;2023-02-18T02:34:33;2.33;;;1.65;;
38591;SDS011;24356;48.460;11.450;2023-02-18T02:37:08;3.47;;;1.70;;
38591;SDS011;24356;48.460;11.450;2023-02-18T02:42:39;2.53;;;1.55;;
38591;SDS011;24356;48.460;11.450;2023-02-18T02:45:18;3.67;;;1.67;;
38591;SDS011;24356;48.460;11.450;2023-02-18T02:47:54;3.10;;;1.70;;
38591;SDS011;24356;48.460;11.450;2023-02-18T02:50:25;2.88;;;1.70;;
38591;SDS011;24356;48.460;11.450;2023-02-18T02:53:10;4.15;;;1.73;;
38591;SDS011;24356;48.460;11.450;2023-02-18T02:55:41;2.95;;;1.50;;
38591;SDS011;24356;48.460;11.450;2023-02-18T02:58:08;3.17;;;1.60;;
38591;SDS011;24356;48.460;11.450;2023-02-18T03:03:28;3.03;;;1.70;;
38591;SDS011;24356;48.460;11.450;2023-02-18T03:09:32;2.65;;;1.60;;
38591;SDS011;24356;48.460;11.450;2023-02-18T03:12:15;2.78;;;1.50;;
38591;SDS011;24356;48.460;11.450;2023-02-18T03:17:21;1.77;;;1.38;;
38591;SDS011;24356;48.460;11.450;2023-02-18T03:19:55;3.05;;;1.40;;
38591;SDS011;24356;48.460;11.450;2023-02-18T03:22:31;2.40;;;1.40;;
38591;SDS011;24356;48.460;11.450;2023-02-18T03:25:02;3.30;;;1.77;;
38591;SDS011;24356;48.460;11.450;2023-02-18T03:27:31;2.00;;;1.50;;
38591;SDS011;24356;48.460;11.450;2023-02-18T03:30:03;1.88;;;1.40;;
38591;SDS011;24356;48.460;11.450;2023-02-18T03:32:34;3.15;;;1.70;;
38591;SDS011;24356;48.460;11.450;2023-02-18T03:35:07;2.53;;;1.50;;
38591;SDS011;24356;48.460;11.450;2023-02-18T03:37:41;2.95;;;1.50;;
38591;SDS011;24356;48.460;11.450;2023-02-18T03:40:16;3.50;;;1.58;;
38591;SDS011;24356;48.460;11.450;2023-02-18T03:42:42;2.03;;;1.70;;
38591;SDS011;24356;48.460;11.450;2023-02-18T03:45:08;2.67;;;1.73;;
38591;SDS011;24356;48.460;11.450;2023-02-18T03:47:34;3.53;;;1.77;;
38591;SDS011;24356;48.460;11.450;2023-02-18T03:50:00;3.40;;;2.03;;
38591;SDS011;24356;48.460;11.450;2023-02-18T03:52:25;2.35;;;1.60;;
38591;SDS011;24356;48.460;11.450;2023-02-18T03:54:51;3.60;;;1.75;;
38591;SDS011;24356;48.460;11.450;2023-02-18T03:57:17;4.50;;;1.92;;
38591;SDS011;24356;48.460;11.450;2023-02-18T03:59:42;2.70;;;1.70;;
38591;SDS011;24356;48.460;11.450;2023-02-18T04:02:08;2.97;;;1.98;;
38591;SDS011;24356;48.460;11.450;2023-02-18T04:04:33;2.05;;;1.48;;
38591;SDS011;24356;48.460;11.450;2023-02-18T04:06:59;4.20;;;1.85;;
38591;SDS011;24356;48.460;11.450;2023-02-18T04:09:25;4.38;;;1.95;;
38591;SDS011;24356;48.460;11.450;2023-02-18T04:11:50;2.80;;;1.60;;
38591;SDS011;24356;48.460;11.450;2023-02-18T04:14:16;3.78;;;1.98;;
38591;SDS011;24356;48.460;11.450;2023-02-18T04:16:41;2.30;;;1.73;;
38591;SDS011;24356;48.460;11.450;2023-02-18T04:19:07;2.70;;;1.58;;
38591;SDS011;24356;48.460;11.450;2023-02-18T04:21:33;4.25;;;1.70;;
38591;SDS011;24356;48.460;11.450;2023-02-18T04:23:59;3.47;;;1.73;;
38591;SDS011;24356;48.460;11.450;2023-02-18T04:26:24;3.80;;;1.75;;
38591;SDS011;24356;48.460;11.450;2023-02-18T04:28:50;3.00;;;1.67;;
38591;SDS011;24356;48.460;11.450;2023-02-18T04:31:16;3.45;;;1.50;;
38591;SDS011;24356;48.460;11.450;2023-02-18T04:33:42;1.90;;;1.40;;
38591;SDS011;24356;48.460;11.450;2023-02-18T04:36:07;1.85;;;1.48;;
38591;SDS011;24356;48.460;11.450;2023-02-18T04:38:33;2.00;;;1.42;;
38591;SDS011;24356;48.460;11.450;2023-02-18T04:40:58;3.33;;;1.60;;
38591;SDS011;24356;48.460;11.450;2023-02-18T04:43:24;3.38;;;1.48;;
38591;SDS011;24356;48.460;11.450;2023-02-18T04:45:50;1.92;;;1.27;;
38591;SDS011;24356;48.460;11.450;2023-02-18T04:48:15;2.75;;;1.35;;
38591;SDS011;24356;48.460;11.450;2023-02-18T04:50:42;3.88;;;1.50;;
38591;SDS011;24356;48.460;11.450;2023-02-18T04:53:08;2.00;;;1.35;;
38591;SDS011;24356;48.460;11.450;2023-02-18T04:55:33;2.10;;;1.52;;
38591;SDS011;24356;48.460;11.450;2023-02-18T04:57:59;2.20;;;1.52;;
38591;SDS011;24356;48.460;11.450;2023-02-18T05:00:25;2.58;;;1.42;;
38591;SDS011;24356;48.460;11.450;2023-02-18T05:02:52;3.05;;;1.60;;
38591;SDS011;24356;48.460;11.450;2023-02-18T05:05:17;2.22;;;1.50;;
38591;SDS011;24356;48.460;11.450;2023-02-18T05:07:43;2.50;;;1.55;;
38591;SDS011;24356;48.460;11.450;2023-02-18T05:10:10;2.30;;;1.40;;
38591;SDS011;24356;48.460;11.450;2023-02-18T05:12:39;2.08;;;1.30;;
38591;SDS011;24356;48.460;11.450;2023-02-18T05:15:05;1.95;;;1.20;;
38591;SDS011;24356;48.460;11.450;2023-02-18T05:17:31;1.50;;;1.40;;
38591;SDS011;24356;48.460;11.450;2023-02-18T05:19:56;1.52;;;1.40;;
38591;SDS011;24356;48.460;11.450;2023-02-18T05:22:22;2.33;;;1.40;;
38591;SDS011;24356;48.460;11.450;2023-02-18T05:24:47;2.67;;;1.50;;
38591;SDS011;24356;48.460;11.450;2023-02-18T05:27:13;3.15;;;1.58;;
38591;SDS011;24356;48.460;11.450;2023-02-18T05:29:38;3.25;;;1.40;;
38591;SDS011;24356;48.460;11.450;2023-02-18T05:32:04;2.55;;;1.42;;
38591;SDS011;24356;48.460;11.450;2023-02-18T05:34:30;3.03;;;1.40;;
38591;SDS011;24356;48.460;11.450;2023-02-18T05:36:55;1.58;;;1.35;;
38591;SDS011;24356;48.460;11.450;2023-02-18T05:39:21;2.72;;;1.50;;
38591;SDS011;24356;48.460;11.450;2023-02-18T05:41:46;2.10;;;1.45;;
38591;SDS011;24356;48.460;11.450;2023-02-18T05:44:12;1.88;;;1.30;;
38591;SDS011;24356;48.460;11.450;2023-02-18T05:47:00;1.77;;;1.40;;
38591;SDS011;24356;48.460;11.450;2023-02-18T05:49:27;2.00;;;1.42;;
38591;SDS011;24356;48.460;11.450;2023-02-18T05:51:54;1.60;;;1.13;;
38591;SDS011;24356;48.460;11.450;2023-02-18T05:54:20;2.67;;;1.40;;
38591;SDS011;24356;48.460;11.450;2023-02-18T05:56:46;2.17;;;1.38;;
38591;SDS011;24356;48.460;11.450;2023-02-18T05:59:11;3.53;;;1.33;;
38591;SDS011;24356;48.460;11.450;2023-02-18T06:01:37;1.30;;;1.15;;
38591;SDS011;24356;48.460;11.450;2023-02-18T06:04:03;2.70;;;1.45;;
38591;SDS011;24356;48.460;11.450;2023-02-18T06:06:28;3.28;;;1.20;;
38591;SDS011;24356;48.460;11.450;2023-02-18T06:08:54;2.08;;;1.15;;
38591;SDS011;24356;48.460;11.450;2023-02-18T06:11:19;2.47;;;1.30;;
38591;SDS011;24356;48.460;11.450;2023-02-18T06:13:45;5.53;;;1.30;;
38591;SDS011;24356;48.460;11.450;2023-02-18T06:16:11;1.83;;;1.10;;
38591;SDS011;24356;48.460;11.450;2023-02-18T06:18:37;1.88;;;1.27;;
38591;SDS011;24356;48.460;11.450;2023-02-18T06:21:02;2.50;;;1.13;;
38591;SDS011;24356;48.460;11.450;2023-02-18T06:23:28;1.00;;;0.90;;
38591;SDS011;24356;48.460;11.450;2023-02-18T06:25:54;1.15;;;1.05;;
38591;SDS011;24356;48.460;11.450;2023-02-18T06:28:19;1.40;;;1.20;;
38591;SDS011;24356;48.460;11.450;2023-02-18T06:30:46;2.20;;;1.10;;
38591;SDS011;24356;48.460;11.450;2023-02-18T06:33:11;1.17;;;1.00;;
38591;SDS011;24356;48.460;11.450;2023-02-18T06:35:37;1.83;;;1.30;;
38591;SDS011;24356;48.460;11.450;2023-02-18T06:38:03;1.20;;;0.93;;
38591;SDS011;24356;48.460;11.450;2023-02-18T06:40:28;1.50;;;1.10;;
38591;SDS011;24356;48.460;11.450;2023-02-18T06:42:54;1.63;;;1.20;;
38591;SDS011;24356;48.460;11.450;2023-02-18T06:45:20;1.30;;;1.00;;
38591;SDS011;24356;48.460;11.450;2023-02-18T06:47:45;1.40;;;1.20;;
38591;SDS011;24356;48.460;11.450;2023-02-18T06:50:11;1.15;;;1.05;;
38591;SDS011;24356;48.460;11.450;2023-02-18T06:52:37;1.20;;;1.00;;
38591;SDS011;24356;48.460;11.450;2023-02-18T06:55:06;1.90;;;1.05;;
38591;SDS011;24356;48.460;11.450;2023-02-18T06:57:33;1.30;;;0.90;;
38591;SDS011;24356;48.460;11.450;2023-02-18T06:59:59;0.88;;;0.82;;
38591;SDS011;24356;48.460;11.450;2023-02-18T07:02:25;2.42;;;1.10;;
38591;SDS011;24356;48.460;11.450;2023-02-18T07:04:51;2.13;;;0.98;;
38591;SDS011;24356;48.460;11.450;2023-02-18T07:07:17;1.13;;;1.02;;
38591;SDS011;24356;48.460;11.450;2023-02-18T07:09:42;1.42;;;1.10;;
38591;SDS011;24356;48.460;11.450;2023-02-18T07:12:08;1.20;;;1.00;;
38591;SDS011;24356;48.460;11.450;2023-02-18T07:14:33;1.23;;;1.10;;
38591;SDS011;24356;48.460;11.450;2023-02-18T07:16:59;1.45;;;1.02;;
38591;SDS011;24356;48.460;11.450;2023-02-18T07:19:24;2.55;;;1.10;;
38591;SDS011;24356;48.460;11.450;2023-02-18T07:21:50;2.45;;;1.13;;
38591;SDS011;24356;48.460;11.450;2023-02-18T07:24:18;2.13;;;1.10;;
38591;SDS011;24356;48.460;11.450;2023-02-18T07:26:43;1.88;;;1.15;;
38591;SDS011;24356;48.460;11.450;2023-02-18T07:29:09;1.70;;;1.13;;
38591;SDS011;24356;48.460;11.450;2023-02-18T07:31:34;1.58;;;0.98;;
38591;SDS011;24356;48.460;11.450;2023-02-18T07:34:00;2.38;;;1.30;;
38591;SDS011;24356;48.460;11.450;2023-02-18T07:36:25;2.30;;;1.15;;
38591;SDS011;24356;48.460;11.450;2023-02-18T07:38:51;3.70;;;1.27;;
38591;SDS011;24356;48.460;11.450;2023-02-18T07:41:20;2.88;;;1.17;;
38591;SDS011;24356;48.460;11.450;2023-02-18T07:43:47;1.42;;;1.10;;
38591;SDS011;24356;48.460;11.450;2023-02-18T07:46:12;1.98;;;1.10;;
38591;SDS011;24356;48.460;11.450;2023-02-18T07:48:39;1.45;;;1.20;;
38591;SDS011;24356;48.460;11.450;2023-02-18T07:51:05;1.50;;;1.20;;
38591;SDS011;24356;48.460;11.450;2023-02-18T07:53:32;3.13;;;1.10;;
38591;SDS011;24356;48.460;11.450;2023-02-18T07:55:58;2.75;;;1.30;;
38591;SDS011;24356;48.460;11.450;2023-02-18T07:58:28;2.25;;;1.33;;
38591;SDS011;24356;48.460;11.450;2023-02-18T08:00:58;2.47;;;1.23;;
38591;SDS011;24356;48.460;11.450;2023-02-18T08:03:25;4.43;;;1.05;;
38591;SDS011;24356;48.460;11.450;2023-02-18T08:05:53;9.88;;;3.88;;
38591;SDS011;24356;48.460;11.450;2023-02-18T08:08:21;3.65;;;1.58;;
38591;SDS011;24356;48.460;11.450;2023-02-18T08:10:48;1.30;;;1.20;;
38591;SDS011;24356;48.460;11.450;2023-02-18T08:13:14;1.90;;;1.33;;
38591;SDS011;24356;48.460;11.450;2023-02-18T08:15:40;2.70;;;1.33;;
38591;SDS011;24356;48.460;11.450;2023-02-18T08:18:06;1.52;;;1.30;;
38591;SDS011;24356;48.460;11.450;2023-02-18T08:20:38;1.90;;;1.40;;
38591;SDS011;24356;48.460;11.450;2023-02-18T08:23:04;1.63;;;1.10;;
38591;SDS011;24356;48.460;11.450;2023-02-18T08:25:30;1.60;;;1.10;;
38591;SDS011;24356;48.460;11.450;2023-02-18T08:27:56;1.08;;;0.98;;
38591;SDS011;24356;48.460;11.450;2023-02-18T08:30:22;2.20;;;1.05;;
38591;SDS011;24356;48.460;11.450;2023-02-18T08:32:47;2.10;;;0.80;;
38591;SDS011;24356;48.460;11.450;2023-02-18T08:35:13;1.73;;;1.10;;
38591;SDS011;24356;48.460;11.450;2023-02-18T08:37:38;2.08;;;0.80;;
38591;SDS011;24356;48.460;11.450;2023-02-18T08:40:04;1.45;;;0.93;;
38591;SDS011;24356;48.460;11.450;2023-02-18T08:42:31;2.25;;;0.88;;
38591;SDS011;24356;48.460;11.450;2023-02-18T08:44:56;1.50;;;0.73;;
38591;SDS011;24356;48.460;11.450;2023-02-18T08:47:22;2.72;;;1.20;;
38591;SDS011;24356;48.460;11.450;2023-02-18T08:49:47;2.38;;;1.00;;
38591;SDS011;24356;48.460;11.450;2023-02-18T08:52:13;0.88;;;0.80;;
38591;SDS011;24356;48.460;11.450;2023-02-18T08:54:39;1.27;;;1.00;;
38591;SDS011;24356;48.460;11.450;2023-02-18T08:57:04;1.40;;;0.90;;
38591;SDS011;24356;48.460;11.450;2023-02-18T08:59:30;2.40;;;0.90;;
38591;SDS011;24356;48.460;11.450;2023-02-18T09:01:55;2.10;;;1.10;;
38591;SDS011;24356;48.460;11.450;2023-02-18T09:04:21;2.50;;;1.15;;
38591;SDS011;24356;48.460;11.450;2023-02-18T09:06:47;2.42;;;1.00;;
38591;SDS011;24356;48.460;11.450;2023-02-18T09:09:14;2.33;;;1.33;;
38591;SDS011;24356;48.460;11.450;2023-02-18T09:11:40;1.42;;;1.10;;
38591;SDS011;24356;48.460;11.450;2023-02-18T09:14:06;1.75;;;0.98;;
38591;SDS011;24356;48.460;11.450;2023-02-18T09:16:32;1.30;;;1.00;;
38591;SDS011;24356;48.460;11.450;2023-02-18T09:18:58;2.83;;;1.30;;
38591;SDS011;24356;48.460;11.450;2023-02-18T09:21:25;2.53;;;1.10;;
38591;SDS011;24356;48.460;11.450;2023-02-18T09:23:51;1.60;;;0.82;;
38591;SDS011;24356;48.460;11.450;2023-02-18T09:26:17;3.50;;;1.05;;
38591;SDS011;24356;48.460;11.450;2023-02-18T09:28:49;1.77;;;0.77;;
38591;SDS011;24356;48.460;11.450;2023-02-18T09:31:16;1.83;;;1.48;;
38591;SDS011;24356;48.460;11.450;2023-02-18T09:33:46;3.95;;;1.80;;
38591;SDS011;24356;48.460;11.450;2023-02-18T09:36:14;2.20;;;1.88;;
38591;SDS011;24356;48.460;11.450;2023-02-18T09:38:40;1.00;;;1.00;;
38591;SDS011;24356;48.460;11.450;2023-02-18T09:41:08;1.20;;;0.85;;
38591;SDS011;24356;48.460;11.450;2023-02-18T09:43:41;1.73;;;0.90;;
38591;SDS011;24356;48.460;11.450;2023-02-18T09:46:18;1.77;;;1.30;;
38591;SDS011;24356;48.460;11.450;2023-02-18T09:48:47;1.15;;;1.00;;
38591;SDS011;24356;48.460;11.450;2023-02-18T09:51:13;2.13;;;1.20;;
38591;SDS011;24356;48.460;11.450;2023-02-18T09:53:40;5.72;;;4.55;;
38591;SDS011;24356;48.460;11.450;2023-02-18T09:56:09;1.83;;;1.73;;
38591;SDS011;24356;48.460;11.450;2023-02-18T09:58:53;3.63;;;3.13;;
38591;SDS011;24356;48.460;11.450;2023-02-18T10:01:27;2.20;;;2.00;;
38591;SDS011;24356;48.460;11.450;2023-02-18T10:03:58;3.15;;;2.85;;
38591;SDS011;24356;48.460;11.450;2023-02-18T10:06:31;3.33;;;2.90;;
38591;SDS011;24356;48.460;11.450;2023-02-18T10:09:02;2.45;;;2.25;;
38591;SDS011;24356;48.460;11.450;2023-02-18T10:11:41;1.27;;;1.00;;
38591;SDS011;24356;48.460;11.450;2023-02-18T10:14:10;6.53;;;5.88;;
38591;SDS011;24356;48.460;11.450;2023-02-18T10:16:37;2.70;;;2.50;;
38591;SDS011;24356;48.460;11.450;2023-02-18T10:19:25;3.80;;;2.55;;
38591;SDS011;24356;48.460;11.450;2023-02-18T10:21:55;11.25;;;9.85;;
38591;SDS011;24356;48.460;11.450;2023-02-18T10:24:26;5.68;;;4.75;;
38591;SDS011;24356;48.460;11.450;2023-02-18T10:26:57;7.45;;;5.53;;
38591;SDS011;24356;48.460;11.450;2023-02-18T10:29:24;11.48;;;7.70;;
38591;SDS011;24356;48.460;11.450;2023-02-18T10:34:47;8.48;;;5.82;;
38591;SDS011;24356;48.460;11.450;2023-02-18T10:40:13;3.42;;;2.72;;
38591;SDS011;24356;48.460;11.450;2023-02-18T10:42:45;1.98;;;1.40;;
38591;SDS011;24356;48.460;11.450;2023-02-18T10:50:47;2.50;;;1.15;;
38591;SDS011;24356;48.460;11.450;2023-02-18T10:55:57;4.22;;;1.83;;
38591;SDS011;24356;48.460;11.450;2023-02-18T10:58:24;3.05;;;1.42;;
38591;SDS011;24356;48.460;11.450;2023-02-18T11:00:53;1.92;;;1.23;;
38591;SDS011;24356;48.460;11.450;2023-02-18T11:03:20;2.45;;;1.10;;
38591;SDS011;24356;48.460;11.450;2023-02-18T11:05:52;1.92;;;0.90;;
38591;SDS011;24356;48.460;11.450;2023-02-18T11:08:22;1.08;;;0.88;;
38591;SDS011;24356;48.460;11.450;2023-02-18T11:10:52;1.25;;;0.85;;
38591;SDS011;24356;48.460;11.450;2023-02-18T11:13:23;3.15;;;0.70;;
38591;SDS011;24356;48.460;11.450;2023-02-18T11:18:46;0.60;;;0.60;;
38591;SDS011;24356;48.460;11.450;2023-02-18T11:24:05;3.78;;;0.88;;
38591;SDS011;24356;48.460;11.450;2023-02-18T11:29:00;3.00;;;0.85;;
38591;SDS011;24356;48.460;11.450;2023-02-18T11:31:38;1.23;;;0.60;;
38591;SDS011;24356;48.460;11.450;2023-02-18T11:34:05;1.00;;;0.50;;
38591;SDS011;24356;48.460;11.450;2023-02-18T11:36:37;1.50;;;0.77;;
38591;SDS011;24356;48.460;11.450;2023-02-18T11:39:16;1.38;;;0.68;;
38591;SDS011;24356;48.460;11.450;2023-02-18T11:41:55;0.77;;;0.52;;
38591;SDS011;24356;48.460;11.450;2023-02-18T11:44:36;1.95;;;0.90;;
38591;SDS011;24356;48.460;11.450;2023-02-18T11:49:36;2.33;;;0.90;;
38591;SDS011;24356;48.460;11.450;2023-02-18T11:52:19;1.02;;;0.90;;
38591;SDS011;24356;48.460;11.450;2023-02-18T11:55:03;2.35;;;0.68;;
38591;SDS011;24356;48.460;11.450;2023-02-18T11:57:33;2.25;;;0.88;;
38591;SDS011;24356;48.460;11.450;2023-02-18T12:00:01;1.67;;;0.60;;
38591;SDS011;24356;48.460;11.450;2023-02-18T12:02:32;0.90;;;0.80;;
38591;SDS011;24356;48.460;11.450;2023-02-18T12:10:23;1.08;;;0.73;;
38591;SDS011;24356;48.460;11.450;2023-02-18T12:13:00;1.40;;;0.80;;
38591;SDS011;24356;48.460;11.450;2023-02-18T12:21:25;1.33;;;0.70;;
38591;SDS011;24356;48.460;11.450;2023-02-18T12:29:35;1.38;;;0.77;;
38591;SDS011;24356;48.460;11.450;2023-02-18T12:32:27;4.85;;;1.70;;
38591;SDS011;24356;48.460;11.450;2023-02-18T12:37:50;1.60;;;1.02;;
38591;SDS011;24356;48.460;11.450;2023-02-18T12:43:11;1.55;;;0.82;;
38591;SDS011;24356;48.460;11.450;2023-02-18T12:54:21;4.22;;;1.98;;
38591;SDS011;24356;48.460;11.450;2023-02-18T13:10:59;2.28;;;0.88;;
38591;SDS011;24356;48.460;11.450;2023-02-18T13:13:30;2.22;;;1.30;;
38591;SDS011;24356;48.460;11.450;2023-02-18T13:15:59;1.10;;;0.88;;
38591;SDS011;24356;48.460;11.450;2023-02-18T13:18:33;1.83;;;0.73;;
38591;SDS011;24356;48.460;11.450;2023-02-18T13:21:13;0.85;;;0.65;;
38591;SDS011;24356;48.460;11.450;2023-02-18T13:26:17;1.15;;;0.73;;
38591;SDS011;24356;48.460;11.450;2023-02-18T13:39:50;1.05;;;0.80;;
38591;SDS011;24356;48.460;11.450;2023-02-18T13:50:14;117.78;;;45.70;;
38591;SDS011;24356;48.460;11.450;2023-02-18T13:52:50;281.67;;;74.47;;
38591;SDS011;24356;48.460;11.450;2023-02-18T13:55:41;205.15;;;54.92;;
38591;SDS011;24356;48.460;11.450;2023-02-18T13:58:24;26.67;;;10.00;;
38591;SDS011;24356;48.460;11.450;2023-02-18T14:00:59;31.00;;;11.15;;
38591;SDS011;24356;48.460;11.450;2023-02-18T14:03:35;38.75;;;14.13;;
38591;SDS011;24356;48.460;11.450;2023-02-18T14:07:15;25.65;;;9.93;;
38591;SDS011;24356;48.460;11.450;2023-02-18T14:11:44;19.60;;;8.07;;
38591;SDS011;24356;48.460;11.450;2023-02-18T14:20:44;29.83;;;16.92;;
38591;SDS011;24356;48.460;11.450;2023-02-18T14:25:37;14.07;;;6.72;;
38591;SDS011;24356;48.460;11.450;2023-02-18T14:28:34;7.80;;;3.92;;
38591;SDS011;24356;48.460;11.450;2023-02-18T14:31:03;6.90;;;3.47;;
38591;SDS011;24356;48.460;11.450;2023-02-18T14:42:02;7.65;;;3.58;;
38591;SDS011;24356;48.460;11.450;2023-02-18T14:44:52;4.05;;;2.55;;
38591;SDS011;24356;48.460;11.450;2023-02-18T14:49:58;8.10;;;2.13;;
38591;SDS011;24356;48.460;11.450;2023-02-18T14:54:59;2.83;;;1.55;;
38591;SDS011;24356;48.460;11.450;2023-02-18T14:57:30;2.38;;;1.52;;
38591;SDS011;24356;48.460;11.450;2023-02-18T15:00:13;5.82;;;1.80;;
38591;SDS011;24356;48.460;11.450;2023-02-18T15:02:47;5.50;;;1.63;;
38591;SDS011;24356;48.460;11.450;2023-02-18T15:05:21;2.40;;;1.42;;
38591;SDS011;24356;48.460;11.450;2023-02-18T15:07:56;3.00;;;1.40;;
38591;SDS011;24356;48.460;11.450;2023-02-18T15:10:33;3.60;;;1.50;;
38591;SDS011;24356;48.460;11.450;2023-02-18T15:13:07;1.90;;;1.30;;
38591;SDS011;24356;48.460;11.450;2023-02-18T15:15:38;1.65;;;1.25;;
38591;SDS011;24356;48.460;11.450;2023-02-18T15:18:11;3.85;;;1.98;;
38591;SDS011;24356;48.460;11.450;2023-02-18T15:20:53;2.63;;;1.30;;
38591;SDS011;24356;48.460;11.450;2023-02-18T15:23:19;4.88;;;1.27;;
38591;SDS011;24356;48.460;11.450;2023-02-18T15:25:46;8.35;;;3.55;;
38591;SDS011;24356;48.460;11.450;2023-02-18T15:28:28;2.08;;;1.23;;
38591;SDS011;24356;48.460;11.450;2023-02-18T15:30:56;2.25;;;1.20;;
38591;SDS011;24356;48.460;11.450;2023-02-18T15:33:23;3.25;;;1.20;;
38591;SDS011;24356;48.460;11.450;2023-02-18T15:35:49;1.67;;;1.30;;
38591;SDS011;24356;48.460;11.450;2023-02-18T15:38:16;3.25;;;2.08;;
38591;SDS011;24356;48.460;11.450;2023-02-18T15:40:46;2.88;;;1.80;;
38591;SDS011;24356;48.460;11.450;2023-02-18T15:43:16;4.90;;;2.25;;
38591;SDS011;24356;48.460;11.450;2023-02-18T15:45:45;4.25;;;1.50;;
38591;SDS011;24356;48.460;11.450;2023-02-18T15:48:21;3.53;;;2.13;;
38591;SDS011;24356;48.460;11.450;2023-02-18T15:50:52;2.50;;;1.38;;
38591;SDS011;24356;48.460;11.450;2023-02-18T15:53:19;1.80;;;1.50;;
38591;SDS011;24356;48.460;11.450;2023-02-18T15:55:46;2.45;;;1.13;;
38591;SDS011;24356;48.460;11.450;2023-02-18T15:58:18;3.33;;;1.25;;
38591;SDS011;24356;48.460;11.450;2023-02-18T16:00:49;1.92;;;1.00;;
38591;SDS011;24356;48.460;11.450;2023-02-18T16:06:07;1.40;;;1.00;;
38591;SDS011;24356;48.460;11.450;2023-02-18T16:08:35;1.45;;;1.15;;
38591;SDS011;24356;48.460;11.450;2023-02-18T16:11:02;1.63;;;1.13;;
38591;SDS011;24356;48.460;11.450;2023-02-18T16:13:31;1.17;;;1.00;;
38591;SDS011;24356;48.460;11.450;2023-02-18T16:15:58;2.67;;;1.50;;
38591;SDS011;24356;48.460;11.450;2023-02-18T16:23:44;1.65;;;1.23;;
38591;SDS011;24356;48.460;11.450;2023-02-18T16:26:22;1.45;;;1.10;;
38591;SDS011;24356;48.460;11.450;2023-02-18T16:28:53;2.30;;;1.23;;
38591;SDS011;24356;48.460;11.450;2023-02-18T16:31:24;3.08;;;1.17;;
38591;SDS011;24356;48.460;11.450;2023-02-18T16:33:49;0.88;;;0.80;;
38591;SDS011;24356;48.460;11.450;2023-02-18T16:36:16;2.30;;;1.10;;
38591;SDS011;24356;48.460;11.450;2023-02-18T16:38:42;1.63;;;1.10;;
38591;SDS011;24356;48.460;11.450;2023-02-18T16:41:10;3.33;;;1.42;;
38591;SDS011;24356;48.460;11.450;2023-02-18T16:43:37;3.40;;;1.02;;
38591;SDS011;24356;48.460;11.450;2023-02-18T16:46:21;2.10;;;1.20;;
38591;SDS011;24356;48.460;11.450;2023-02-18T16:48:48;2.75;;;1.40;;
38591;SDS011;24356;48.460;11.450;2023-02-18T16:51:16;4.30;;;1.77;;
38591;SDS011;24356;48.460;11.450;2023-02-18T16:53:46;2.85;;;1.30;;
38591;SDS011;24356;48.460;11.450;2023-02-18T16:56:16;3.35;;;1.50;;
38591;SDS011;24356;48.460;11.450;2023-02-18T16:58:45;2.95;;;1.00;;
38591;SDS011;24356;48.460;11.450;2023-02-18T17:01:16;1.60;;;1.15;;
38591;SDS011;24356;48.460;11.450;2023-02-18T17:03:58;1.83;;;1.10;;
38591;SDS011;24356;48.460;11.450;2023-02-18T17:06:26;2.60;;;1.50;;
38591;SDS011;24356;48.460;11.450;2023-02-18T17:08:52;2.25;;;1.50;;
38591;SDS011;24356;48.460;11.450;2023-02-18T17:11:22;2.55;;;1.10;;
38591;SDS011;24356;48.460;11.450;2023-02-18T17:13:56;1.33;;;1.23;;
38591;SDS011;24356;48.460;11.450;2023-02-18T17:16:23;1.40;;;1.00;;
38591;SDS011;24356;48.460;11.450;2023-02-18T17:18:49;1.60;;;1.08;;
38591;SDS011;24356;48.460;11.450;2023-02-18T17:21:16;1.42;;;1.25;;